sensor_id;sensor_type;location;lat;lon;timestamp;temperature;humidity
3528;DHT22;1778;47.966;7.854;2023-07-13T00:00:07;20.30;99.90
3528;DHT22;1778;47.966;7.854;2023-07-13T00:01:16;20.30;99.90
3528;DHT22;1778;47.966;7.854;2023-07-13T00:02:18;20.30;99.90
3528;DHT22;1778;47.966;7.854;2023-07-13T00:03:19;20.30;99.90
3528;DHT22;1778;47.966;7.854;2023-07-13T00:04:23;20.30;99.90
3528;DHT22;1778;47.966;7.854;2023-07-13T00:05:27;20.20;99.90
3528;DHT22;1778;47.966;7.854;2023-07-13T00:06:28;20.20;99.90
3528;DHT22;1778;47.966;7.854;2023-07-13T00:07:35;20.20;99.90
3528;DHT22;1778;47.966;7.854;2023-07-13T00:08:36;20.20;99.90
3528;DHT22;1778;47.966;7.854;2023-07-13T00:09:38;20.20;99.90
3528;DHT22;1778;47.966;7.854;2023-07-13T00:10:40;20.20;99.90
3528;DHT22;1778;47.966;7.854;2023-07-13T00:11:43;20.20;99.90
3528;DHT22;1778;47.966;7.854;2023-07-13T00:12:45;20.20;99.90
3528;DHT22;1778;47.966;7.854;2023-07-13T00:13:47;20.30;99.90
3528;DHT22;1778;47.966;7.854;2023-07-13T00:14:48;20.30;99.90
3528;DHT22;1778;47.966;7.854;2023-07-13T00:15:51;20.20;99.90
3528;DHT22;1778;47.966;7.854;2023-07-13T00:16:55;20.20;99.90
3528;DHT22;1778;47.966;7.854;2023-07-13T00:17:57;20.10;99.90
3528;DHT22;1778;47.966;7.854;2023-07-13T00:18:59;20.10;99.90
3528;DHT22;1778;47.966;7.854;2023-07-13T00:20:01;20.10;99.90
3528;DHT22;1778;47.966;7.854;2023-07-13T00:21:03;20.10;99.90
3528;DHT22;1778;47.966;7.854;2023-07-13T00:22:08;20.10;99.90
3528;DHT22;1778;47.966;7.854;2023-07-13T00:23:11;20.10;99.90
3528;DHT22;1778;47.966;7.854;2023-07-13T00:24:15;20.10;99.90
3528;DHT22;1778;47.966;7.854;2023-07-13T00:25:17;20.10;99.90
3528;DHT22;1778;47.966;7.854;2023-07-13T00:26:19;20.10;99.90
3528;DHT22;1778;47.966;7.854;2023-07-13T00:27:20;20.10;99.90
3528;DHT22;1778;47.966;7.854;2023-07-13T00:28:22;20.10;99.90
3528;DHT22;1778;47.966;7.854;2023-07-13T00:29:25;20.10;99.90
3528;DHT22;1778;47.966;7.854;2023-07-13T00:30:27;20.10;99.90
3528;DHT22;1778;47.966;7.854;2023-07-13T00:31:28;20.10;99.90
3528;DHT22;1778;47.966;7.854;2023-07-13T00:32:30;20.10;99.90
3528;DHT22;1778;47.966;7.854;2023-07-13T00:33:33;20.10;99.90
3528;DHT22;1778;47.966;7.854;2023-07-13T00:34:35;20.10;99.90
3528;DHT22;1778;47.966;7.854;2023-07-13T00:35:36;20.10;99.90
3528;DHT22;1778;47.966;7.854;2023-07-13T00:36:39;20.10;99.90
3528;DHT22;1778;47.966;7.854;2023-07-13T00:37:41;20.10;99.90
3528;DHT22;1778;47.966;7.854;2023-07-13T00:38:43;20.10;99.90
3528;DHT22;1778;47.966;7.854;2023-07-13T00:39:45;20.10;99.90
3528;DHT22;1778;47.966;7.854;2023-07-13T00:40:47;20.10;99.90
3528;DHT22;1778;47.966;7.854;2023-07-13T00:41:49;20.10;99.90
3528;DHT22;1778;47.966;7.854;2023-07-13T00:42:52;20.00;99.90
3528;DHT22;1778;47.966;7.854;2023-07-13T00:43:54;20.10;99.90
3528;DHT22;1778;47.966;7.854;2023-07-13T00:46:26;20.10;99.90
3528;DHT22;1778;47.966;7.854;2023-07-13T00:47:28;20.10;99.90
3528;DHT22;1778;47.966;7.854;2023-07-13T00:48:34;20.10;99.90
3528;DHT22;1778;47.966;7.854;2023-07-13T00:49:37;20.00;99.90
3528;DHT22;1778;47.966;7.854;2023-07-13T00:50:39;20.00;99.90
3528;DHT22;1778;47.966;7.854;2023-07-13T00:51:49;20.00;99.90
3528;DHT22;1778;47.966;7.854;2023-07-13T00:52:54;20.00;99.90
3528;DHT22;1778;47.966;7.854;2023-07-13T00:53:59;20.00;99.90
3528;DHT22;1778;47.966;7.854;2023-07-13T00:55:02;20.00;99.90
3528;DHT22;1778;47.966;7.854;2023-07-13T00:56:04;20.00;99.90
3528;DHT22;1778;47.966;7.854;2023-07-13T00:57:10;19.90;99.90
3528;DHT22;1778;47.966;7.854;2023-07-13T00:58:14;20.00;99.90
3528;DHT22;1778;47.966;7.854;2023-07-13T00:59:16;20.00;99.90
3528;DHT22;1778;47.966;7.854;2023-07-13T01:00:21;19.90;99.90
3528;DHT22;1778;47.966;7.854;2023-07-13T01:01:24;19.90;99.90
3528;DHT22;1778;47.966;7.854;2023-07-13T01:02:27;19.90;99.90
3528;DHT22;1778;47.966;7.854;2023-07-13T01:03:30;19.90;99.90
3528;DHT22;1778;47.966;7.854;2023-07-13T01:04:32;19.80;99.90
3528;DHT22;1778;47.966;7.854;2023-07-13T01:05:35;19.90;99.90
3528;DHT22;1778;47.966;7.854;2023-07-13T01:06:37;19.80;99.90
3528;DHT22;1778;47.966;7.854;2023-07-13T01:07:41;19.90;99.90
3528;DHT22;1778;47.966;7.854;2023-07-13T01:08:43;19.80;99.90
3528;DHT22;1778;47.966;7.854;2023-07-13T01:09:44;19.80;99.90
3528;DHT22;1778;47.966;7.854;2023-07-13T01:10:57;19.80;99.90
3528;DHT22;1778;47.966;7.854;2023-07-13T01:12:00;19.70;99.90
3528;DHT22;1778;47.966;7.854;2023-07-13T01:13:07;19.70;99.90
3528;DHT22;1778;47.966;7.854;2023-07-13T01:14:09;19.70;99.90
3528;DHT22;1778;47.966;7.854;2023-07-13T01:16:39;19.60;99.90
3528;DHT22;1778;47.966;7.854;2023-07-13T01:17:42;19.60;99.90
3528;DHT22;1778;47.966;7.854;2023-07-13T01:18:45;19.60;99.90
3528;DHT22;1778;47.966;7.854;2023-07-13T01:19:47;19.50;99.90
3528;DHT22;1778;47.966;7.854;2023-07-13T01:21:00;19.50;99.90
3528;DHT22;1778;47.966;7.854;2023-07-13T01:22:08;19.50;99.90
3528;DHT22;1778;47.966;7.854;2023-07-13T01:23:11;19.40;99.90
3528;DHT22;1778;47.966;7.854;2023-07-13T01:24:14;19.40;99.90
3528;DHT22;1778;47.966;7.854;2023-07-13T01:25:15;19.40;99.90
3528;DHT22;1778;47.966;7.854;2023-07-13T01:26:18;19.30;99.90
3528;DHT22;1778;47.966;7.854;2023-07-13T01:27:22;19.30;99.90
3528;DHT22;1778;47.966;7.854;2023-07-13T01:28:27;19.30;99.90
3528;DHT22;1778;47.966;7.854;2023-07-13T01:29:30;19.30;99.90
3528;DHT22;1778;47.966;7.854;2023-07-13T01:30:32;19.20;99.90
3528;DHT22;1778;47.966;7.854;2023-07-13T01:31:36;19.20;99.90
3528;DHT22;1778;47.966;7.854;2023-07-13T01:32:38;19.20;99.90
3528;DHT22;1778;47.966;7.854;2023-07-13T01:33:43;19.20;99.90
3528;DHT22;1778;47.966;7.854;2023-07-13T01:34:45;19.10;99.90
3528;DHT22;1778;47.966;7.854;2023-07-13T01:35:49;19.20;99.90
3528;DHT22;1778;47.966;7.854;2023-07-13T01:36:51;19.20;99.90
3528;DHT22;1778;47.966;7.854;2023-07-13T01:37:54;19.10;99.90
3528;DHT22;1778;47.966;7.854;2023-07-13T01:38:58;19.10;99.90
3528;DHT22;1778;47.966;7.854;2023-07-13T01:40:00;19.10;99.90
3528;DHT22;1778;47.966;7.854;2023-07-13T01:41:04;19.00;99.90
3528;DHT22;1778;47.966;7.854;2023-07-13T01:42:07;19.00;99.90
3528;DHT22;1778;47.966;7.854;2023-07-13T01:43:09;18.90;99.90
3528;DHT22;1778;47.966;7.854;2023-07-13T01:44:11;18.90;99.90
3528;DHT22;1778;47.966;7.854;2023-07-13T01:45:12;18.90;99.90
3528;DHT22;1778;47.966;7.854;2023-07-13T01:46:14;18.90;99.90
3528;DHT22;1778;47.966;7.854;2023-07-13T01:47:18;18.90;99.90
3528;DHT22;1778;47.966;7.854;2023-07-13T01:48:20;18.80;99.90
3528;DHT22;1778;47.966;7.854;2023-07-13T01:49:22;18.80;99.90
3528;DHT22;1778;47.966;7.854;2023-07-13T01:50:25;18.90;99.90
3528;DHT22;1778;47.966;7.854;2023-07-13T01:51:26;18.80;99.90
3528;DHT22;1778;47.966;7.854;2023-07-13T01:52:28;18.80;99.90
3528;DHT22;1778;47.966;7.854;2023-07-13T01:53:32;18.80;99.90
3528;DHT22;1778;47.966;7.854;2023-07-13T01:54:35;18.80;99.90
3528;DHT22;1778;47.966;7.854;2023-07-13T01:55:37;18.70;99.90
3528;DHT22;1778;47.966;7.854;2023-07-13T01:56:39;18.70;99.90
3528;DHT22;1778;47.966;7.854;2023-07-13T01:57:41;18.60;99.90
3528;DHT22;1778;47.966;7.854;2023-07-13T01:58:43;18.70;99.90
3528;DHT22;1778;47.966;7.854;2023-07-13T01:59:46;18.70;99.90
3528;DHT22;1778;47.966;7.854;2023-07-13T02:00:51;18.60;99.90
3528;DHT22;1778;47.966;7.854;2023-07-13T02:01:53;18.70;99.90
3528;DHT22;1778;47.966;7.854;2023-07-13T02:02:55;18.60;99.90
3528;DHT22;1778;47.966;7.854;2023-07-13T02:03:56;18.60;99.90
3528;DHT22;1778;47.966;7.854;2023-07-13T02:04:58;18.60;99.90
3528;DHT22;1778;47.966;7.854;2023-07-13T02:06:00;18.60;99.90
3528;DHT22;1778;47.966;7.854;2023-07-13T02:07:02;18.50;99.90
3528;DHT22;1778;47.966;7.854;2023-07-13T02:08:04;18.50;99.90
3528;DHT22;1778;47.966;7.854;2023-07-13T02:09:06;18.40;99.90
3528;DHT22;1778;47.966;7.854;2023-07-13T02:10:09;18.50;99.90
3528;DHT22;1778;47.966;7.854;2023-07-13T02:11:11;18.50;99.90
3528;DHT22;1778;47.966;7.854;2023-07-13T02:12:12;18.50;99.90
3528;DHT22;1778;47.966;7.854;2023-07-13T02:13:14;18.50;99.90
3528;DHT22;1778;47.966;7.854;2023-07-13T02:14:16;18.50;99.90
3528;DHT22;1778;47.966;7.854;2023-07-13T02:15:18;18.50;99.90
3528;DHT22;1778;47.966;7.854;2023-07-13T02:16:20;18.40;99.90
3528;DHT22;1778;47.966;7.854;2023-07-13T02:17:22;18.40;99.90
3528;DHT22;1778;47.966;7.854;2023-07-13T02:18:24;18.40;99.90
3528;DHT22;1778;47.966;7.854;2023-07-13T02:19:25;18.40;99.90
3528;DHT22;1778;47.966;7.854;2023-07-13T02:20:27;18.30;99.90
3528;DHT22;1778;47.966;7.854;2023-07-13T02:21:29;18.40;99.90
3528;DHT22;1778;47.966;7.854;2023-07-13T02:22:31;18.30;99.90
3528;DHT22;1778;47.966;7.854;2023-07-13T02:23:33;18.40;99.90
3528;DHT22;1778;47.966;7.854;2023-07-13T02:24:35;18.40;99.90
3528;DHT22;1778;47.966;7.854;2023-07-13T02:25:36;18.40;99.90
3528;DHT22;1778;47.966;7.854;2023-07-13T02:26:38;18.30;99.90
3528;DHT22;1778;47.966;7.854;2023-07-13T02:27:39;18.30;99.90
3528;DHT22;1778;47.966;7.854;2023-07-13T02:28:41;18.30;99.90
3528;DHT22;1778;47.966;7.854;2023-07-13T02:29:43;18.30;99.90
3528;DHT22;1778;47.966;7.854;2023-07-13T02:30:44;18.30;99.90
3528;DHT22;1778;47.966;7.854;2023-07-13T02:31:46;18.30;99.90
3528;DHT22;1778;47.966;7.854;2023-07-13T02:32:49;18.20;99.90
3528;DHT22;1778;47.966;7.854;2023-07-13T02:33:51;18.20;99.90
3528;DHT22;1778;47.966;7.854;2023-07-13T02:34:53;18.10;99.90
3528;DHT22;1778;47.966;7.854;2023-07-13T02:35:56;18.10;99.90
3528;DHT22;1778;47.966;7.854;2023-07-13T02:36:58;18.10;99.90
3528;DHT22;1778;47.966;7.854;2023-07-13T02:37:59;18.00;99.90
3528;DHT22;1778;47.966;7.854;2023-07-13T02:39:03;17.90;99.90
3528;DHT22;1778;47.966;7.854;2023-07-13T02:40:05;17.90;99.90
3528;DHT22;1778;47.966;7.854;2023-07-13T02:41:10;17.90;99.90
3528;DHT22;1778;47.966;7.854;2023-07-13T02:42:13;17.90;99.90
3528;DHT22;1778;47.966;7.854;2023-07-13T02:43:15;17.90;99.90
3528;DHT22;1778;47.966;7.854;2023-07-13T02:44:17;17.80;99.90
3528;DHT22;1778;47.966;7.854;2023-07-13T02:45:18;17.80;99.90
3528;DHT22;1778;47.966;7.854;2023-07-13T02:46:20;17.80;99.90
3528;DHT22;1778;47.966;7.854;2023-07-13T02:47:22;17.80;99.90
3528;DHT22;1778;47.966;7.854;2023-07-13T02:48:23;17.80;99.90
3528;DHT22;1778;47.966;7.854;2023-07-13T02:49:25;17.80;99.90
3528;DHT22;1778;47.966;7.854;2023-07-13T02:50:26;17.80;99.90
3528;DHT22;1778;47.966;7.854;2023-07-13T02:51:28;17.80;99.90
3528;DHT22;1778;47.966;7.854;2023-07-13T02:52:30;17.80;99.90
3528;DHT22;1778;47.966;7.854;2023-07-13T02:53:31;17.70;99.90
3528;DHT22;1778;47.966;7.854;2023-07-13T02:54:34;17.70;99.90
3528;DHT22;1778;47.966;7.854;2023-07-13T02:55:35;17.60;99.90
3528;DHT22;1778;47.966;7.854;2023-07-13T02:56:38;17.60;99.90
3528;DHT22;1778;47.966;7.854;2023-07-13T02:57:40;17.60;99.90
3528;DHT22;1778;47.966;7.854;2023-07-13T02:58:42;17.50;99.90
3528;DHT22;1778;47.966;7.854;2023-07-13T02:59:43;17.50;99.90
3528;DHT22;1778;47.966;7.854;2023-07-13T03:00:47;17.50;99.90
3528;DHT22;1778;47.966;7.854;2023-07-13T03:01:50;17.40;99.90
3528;DHT22;1778;47.966;7.854;2023-07-13T03:02:52;17.40;99.90
3528;DHT22;1778;47.966;7.854;2023-07-13T03:03:55;17.40;99.90
3528;DHT22;1778;47.966;7.854;2023-07-13T03:04:57;17.40;99.90
3528;DHT22;1778;47.966;7.854;2023-07-13T03:06:01;17.40;99.90
3528;DHT22;1778;47.966;7.854;2023-07-13T03:07:09;17.40;99.90
3528;DHT22;1778;47.966;7.854;2023-07-13T03:08:12;17.40;99.90
3528;DHT22;1778;47.966;7.854;2023-07-13T03:09:15;17.30;99.90
3528;DHT22;1778;47.966;7.854;2023-07-13T03:10:22;17.30;99.90
3528;DHT22;1778;47.966;7.854;2023-07-13T03:11:24;17.20;99.90
3528;DHT22;1778;47.966;7.854;2023-07-13T03:12:34;17.20;99.90
3528;DHT22;1778;47.966;7.854;2023-07-13T03:13:40;17.20;99.90
3528;DHT22;1778;47.966;7.854;2023-07-13T03:14:42;17.20;99.90
3528;DHT22;1778;47.966;7.854;2023-07-13T03:15:48;17.20;99.90
3528;DHT22;1778;47.966;7.854;2023-07-13T03:16:51;17.20;99.90
3528;DHT22;1778;47.966;7.854;2023-07-13T03:17:56;17.20;99.90
3528;DHT22;1778;47.966;7.854;2023-07-13T03:18:58;17.20;99.90
3528;DHT22;1778;47.966;7.854;2023-07-13T03:19:59;17.20;99.90
3528;DHT22;1778;47.966;7.854;2023-07-13T03:21:02;17.20;99.90
3528;DHT22;1778;47.966;7.854;2023-07-13T03:22:04;17.20;99.90
3528;DHT22;1778;47.966;7.854;2023-07-13T03:23:07;17.20;99.90
3528;DHT22;1778;47.966;7.854;2023-07-13T03:24:09;17.20;99.90
3528;DHT22;1778;47.966;7.854;2023-07-13T03:25:12;17.30;99.90
3528;DHT22;1778;47.966;7.854;2023-07-13T03:26:17;17.30;99.90
3528;DHT22;1778;47.966;7.854;2023-07-13T03:27:19;17.30;99.90
3528;DHT22;1778;47.966;7.854;2023-07-13T03:28:22;17.20;99.90
3528;DHT22;1778;47.966;7.854;2023-07-13T03:29:24;17.20;99.90
3528;DHT22;1778;47.966;7.854;2023-07-13T03:30:26;17.20;99.90
3528;DHT22;1778;47.966;7.854;2023-07-13T03:31:31;17.10;99.90
3528;DHT22;1778;47.966;7.854;2023-07-13T03:32:33;17.10;99.90
3528;DHT22;1778;47.966;7.854;2023-07-13T03:33:34;17.10;99.90
3528;DHT22;1778;47.966;7.854;2023-07-13T03:34:36;17.10;99.90
3528;DHT22;1778;47.966;7.854;2023-07-13T03:35:40;17.10;99.90
3528;DHT22;1778;47.966;7.854;2023-07-13T03:36:42;17.10;99.90
3528;DHT22;1778;47.966;7.854;2023-07-13T03:37:46;17.10;99.90
3528;DHT22;1778;47.966;7.854;2023-07-13T03:38:55;17.10;99.90
3528;DHT22;1778;47.966;7.854;2023-07-13T03:40:00;17.00;99.90
3528;DHT22;1778;47.966;7.854;2023-07-13T03:41:04;17.00;99.90
3528;DHT22;1778;47.966;7.854;2023-07-13T03:42:06;17.00;99.90
3528;DHT22;1778;47.966;7.854;2023-07-13T03:43:08;17.00;99.90
3528;DHT22;1778;47.966;7.854;2023-07-13T03:44:09;17.00;99.90
3528;DHT22;1778;47.966;7.854;2023-07-13T03:45:11;17.00;99.90
3528;DHT22;1778;47.966;7.854;2023-07-13T03:46:12;16.90;99.90
3528;DHT22;1778;47.966;7.854;2023-07-13T03:47:14;16.90;99.90
3528;DHT22;1778;47.966;7.854;2023-07-13T03:48:17;16.90;99.90
3528;DHT22;1778;47.966;7.854;2023-07-13T03:49:19;16.90;99.90
3528;DHT22;1778;47.966;7.854;2023-07-13T03:50:20;16.90;99.90
3528;DHT22;1778;47.966;7.854;2023-07-13T03:51:22;16.90;99.90
3528;DHT22;1778;47.966;7.854;2023-07-13T03:52:23;16.90;99.90
3528;DHT22;1778;47.966;7.854;2023-07-13T03:53:25;16.90;99.90
3528;DHT22;1778;47.966;7.854;2023-07-13T03:54:27;16.80;99.90
3528;DHT22;1778;47.966;7.854;2023-07-13T03:55:29;16.80;99.90
3528;DHT22;1778;47.966;7.854;2023-07-13T03:56:31;16.80;99.90
3528;DHT22;1778;47.966;7.854;2023-07-13T03:57:35;16.80;99.90
3528;DHT22;1778;47.966;7.854;2023-07-13T03:58:44;16.80;99.90
3528;DHT22;1778;47.966;7.854;2023-07-13T03:59:50;16.70;99.90
3528;DHT22;1778;47.966;7.854;2023-07-13T04:00:52;16.70;99.90
3528;DHT22;1778;47.966;7.854;2023-07-13T04:01:54;16.80;99.90
3528;DHT22;1778;47.966;7.854;2023-07-13T04:02:56;16.70;99.90
3528;DHT22;1778;47.966;7.854;2023-07-13T04:03:58;16.70;99.90
3528;DHT22;1778;47.966;7.854;2023-07-13T04:05:04;16.80;99.90
3528;DHT22;1778;47.966;7.854;2023-07-13T04:06:08;16.80;99.90
3528;DHT22;1778;47.966;7.854;2023-07-13T04:07:18;16.70;99.90
3528;DHT22;1778;47.966;7.854;2023-07-13T04:08:20;16.70;99.90
3528;DHT22;1778;47.966;7.854;2023-07-13T04:09:22;16.80;99.90
3528;DHT22;1778;47.966;7.854;2023-07-13T04:10:23;16.80;99.90
3528;DHT22;1778;47.966;7.854;2023-07-13T04:11:27;16.80;99.90
3528;DHT22;1778;47.966;7.854;2023-07-13T04:12:29;16.80;99.90
3528;DHT22;1778;47.966;7.854;2023-07-13T04:13:31;16.80;99.90
3528;DHT22;1778;47.966;7.854;2023-07-13T04:14:33;16.80;99.90
3528;DHT22;1778;47.966;7.854;2023-07-13T04:15:35;16.80;99.90
3528;DHT22;1778;47.966;7.854;2023-07-13T04:16:36;16.90;99.90
3528;DHT22;1778;47.966;7.854;2023-07-13T04:17:38;16.90;99.90
3528;DHT22;1778;47.966;7.854;2023-07-13T04:18:39;16.90;99.90
3528;DHT22;1778;47.966;7.854;2023-07-13T04:19:42;17.00;99.90
3528;DHT22;1778;47.966;7.854;2023-07-13T04:20:43;17.00;99.90
3528;DHT22;1778;47.966;7.854;2023-07-13T04:21:45;17.00;99.90
3528;DHT22;1778;47.966;7.854;2023-07-13T04:22:47;17.00;99.90
3528;DHT22;1778;47.966;7.854;2023-07-13T04:23:48;17.00;99.90
3528;DHT22;1778;47.966;7.854;2023-07-13T04:24:50;17.10;99.90
3528;DHT22;1778;47.966;7.854;2023-07-13T04:25:53;17.10;99.90
3528;DHT22;1778;47.966;7.854;2023-07-13T04:26:55;17.10;99.90
3528;DHT22;1778;47.966;7.854;2023-07-13T04:28:01;17.20;99.90
3528;DHT22;1778;47.966;7.854;2023-07-13T04:29:03;17.20;99.90
3528;DHT22;1778;47.966;7.854;2023-07-13T04:30:06;17.20;99.90
3528;DHT22;1778;47.966;7.854;2023-07-13T04:31:08;17.20;99.90
3528;DHT22;1778;47.966;7.854;2023-07-13T04:32:09;17.20;99.90
3528;DHT22;1778;47.966;7.854;2023-07-13T04:33:11;17.30;99.90
3528;DHT22;1778;47.966;7.854;2023-07-13T04:34:13;17.20;99.90
3528;DHT22;1778;47.966;7.854;2023-07-13T04:35:15;17.20;99.90
3528;DHT22;1778;47.966;7.854;2023-07-13T04:36:17;17.20;99.90
3528;DHT22;1778;47.966;7.854;2023-07-13T04:37:19;17.20;99.90
3528;DHT22;1778;47.966;7.854;2023-07-13T04:38:30;17.30;99.90
3528;DHT22;1778;47.966;7.854;2023-07-13T04:39:32;17.30;99.90
3528;DHT22;1778;47.966;7.854;2023-07-13T04:40:35;17.20;99.90
3528;DHT22;1778;47.966;7.854;2023-07-13T04:41:37;17.20;99.90
3528;DHT22;1778;47.966;7.854;2023-07-13T04:42:38;17.20;99.90
3528;DHT22;1778;47.966;7.854;2023-07-13T04:43:40;17.20;99.90
3528;DHT22;1778;47.966;7.854;2023-07-13T04:44:46;17.20;99.90
3528;DHT22;1778;47.966;7.854;2023-07-13T04:45:49;17.20;99.90
3528;DHT22;1778;47.966;7.854;2023-07-13T04:46:52;17.20;99.90
3528;DHT22;1778;47.966;7.854;2023-07-13T04:47:53;17.30;99.90
3528;DHT22;1778;47.966;7.854;2023-07-13T04:48:55;17.30;99.90
3528;DHT22;1778;47.966;7.854;2023-07-13T04:49:57;17.30;99.90
3528;DHT22;1778;47.966;7.854;2023-07-13T04:50:59;17.30;99.90
3528;DHT22;1778;47.966;7.854;2023-07-13T04:52:00;17.30;99.90
3528;DHT22;1778;47.966;7.854;2023-07-13T04:53:02;17.30;99.90
3528;DHT22;1778;47.966;7.854;2023-07-13T04:54:05;17.40;99.90
3528;DHT22;1778;47.966;7.854;2023-07-13T04:55:09;17.40;99.90
3528;DHT22;1778;47.966;7.854;2023-07-13T04:56:10;17.50;99.90
3528;DHT22;1778;47.966;7.854;2023-07-13T04:57:13;17.50;99.90
3528;DHT22;1778;47.966;7.854;2023-07-13T04:58:14;17.50;99.90
3528;DHT22;1778;47.966;7.854;2023-07-13T04:59:16;17.40;99.90
3528;DHT22;1778;47.966;7.854;2023-07-13T05:00:18;17.40;99.90
3528;DHT22;1778;47.966;7.854;2023-07-13T05:01:20;17.50;99.90
3528;DHT22;1778;47.966;7.854;2023-07-13T05:02:23;17.50;99.90
3528;DHT22;1778;47.966;7.854;2023-07-13T05:03:24;17.40;99.90
3528;DHT22;1778;47.966;7.854;2023-07-13T05:04:27;17.40;99.90
3528;DHT22;1778;47.966;7.854;2023-07-13T05:05:30;17.40;99.90
3528;DHT22;1778;47.966;7.854;2023-07-13T05:06:32;17.40;99.90
3528;DHT22;1778;47.966;7.854;2023-07-13T05:07:34;17.40;99.90
3528;DHT22;1778;47.966;7.854;2023-07-13T05:08:36;17.40;99.90
3528;DHT22;1778;47.966;7.854;2023-07-13T05:09:39;17.40;99.90
3528;DHT22;1778;47.966;7.854;2023-07-13T05:10:41;17.40;99.90
3528;DHT22;1778;47.966;7.854;2023-07-13T05:11:43;17.40;99.90
3528;DHT22;1778;47.966;7.854;2023-07-13T05:12:45;17.40;99.90
3528;DHT22;1778;47.966;7.854;2023-07-13T05:13:48;17.40;99.90
3528;DHT22;1778;47.966;7.854;2023-07-13T05:14:49;17.50;99.90
3528;DHT22;1778;47.966;7.854;2023-07-13T05:16:02;17.40;99.90
3528;DHT22;1778;47.966;7.854;2023-07-13T05:17:05;17.50;99.90
3528;DHT22;1778;47.966;7.854;2023-07-13T05:18:07;17.50;99.90
3528;DHT22;1778;47.966;7.854;2023-07-13T05:19:09;17.50;99.90
3528;DHT22;1778;47.966;7.854;2023-07-13T05:20:11;17.60;99.90
3528;DHT22;1778;47.966;7.854;2023-07-13T05:21:12;17.60;99.90
3528;DHT22;1778;47.966;7.854;2023-07-13T05:22:14;17.60;99.90
3528;DHT22;1778;47.966;7.854;2023-07-13T05:23:16;17.70;99.90
3528;DHT22;1778;47.966;7.854;2023-07-13T05:24:17;17.70;99.90
3528;DHT22;1778;47.966;7.854;2023-07-13T05:25:26;17.70;99.90
3528;DHT22;1778;47.966;7.854;2023-07-13T05:26:28;17.80;99.90
3528;DHT22;1778;47.966;7.854;2023-07-13T05:27:29;17.80;99.90
3528;DHT22;1778;47.966;7.854;2023-07-13T05:28:31;17.80;99.90
3528;DHT22;1778;47.966;7.854;2023-07-13T05:29:34;17.90;99.90
3528;DHT22;1778;47.966;7.854;2023-07-13T05:30:35;17.90;99.90
3528;DHT22;1778;47.966;7.854;2023-07-13T05:31:37;17.90;99.90
3528;DHT22;1778;47.966;7.854;2023-07-13T05:32:42;18.00;99.90
3528;DHT22;1778;47.966;7.854;2023-07-13T05:33:43;18.00;99.90
3528;DHT22;1778;47.966;7.854;2023-07-13T05:34:45;18.10;99.90
3528;DHT22;1778;47.966;7.854;2023-07-13T05:35:47;18.10;99.90
3528;DHT22;1778;47.966;7.854;2023-07-13T05:36:48;18.20;99.90
3528;DHT22;1778;47.966;7.854;2023-07-13T05:37:50;18.20;99.90
3528;DHT22;1778;47.966;7.854;2023-07-13T05:38:52;18.30;99.90
3528;DHT22;1778;47.966;7.854;2023-07-13T05:39:54;18.40;99.90
3528;DHT22;1778;47.966;7.854;2023-07-13T05:40:57;18.50;99.90
3528;DHT22;1778;47.966;7.854;2023-07-13T05:41:59;18.50;99.90
3528;DHT22;1778;47.966;7.854;2023-07-13T05:43:00;18.50;99.90
3528;DHT22;1778;47.966;7.854;2023-07-13T05:44:02;18.50;99.90
3528;DHT22;1778;47.966;7.854;2023-07-13T05:45:03;18.60;99.90
3528;DHT22;1778;47.966;7.854;2023-07-13T05:46:05;18.60;99.90
3528;DHT22;1778;47.966;7.854;2023-07-13T05:47:07;18.60;99.90
3528;DHT22;1778;47.966;7.854;2023-07-13T05:48:09;18.60;99.90
3528;DHT22;1778;47.966;7.854;2023-07-13T05:49:11;18.60;99.90
3528;DHT22;1778;47.966;7.854;2023-07-13T05:50:15;18.60;99.90
3528;DHT22;1778;47.966;7.854;2023-07-13T05:51:17;18.70;99.90
3528;DHT22;1778;47.966;7.854;2023-07-13T05:52:19;18.70;99.90
3528;DHT22;1778;47.966;7.854;2023-07-13T05:53:21;18.70;99.90
3528;DHT22;1778;47.966;7.854;2023-07-13T05:54:23;18.80;99.90
3528;DHT22;1778;47.966;7.854;2023-07-13T05:55:25;18.80;99.90
3528;DHT22;1778;47.966;7.854;2023-07-13T05:56:27;18.80;99.90
3528;DHT22;1778;47.966;7.854;2023-07-13T05:57:30;18.90;99.90
3528;DHT22;1778;47.966;7.854;2023-07-13T05:58:32;18.90;99.90
3528;DHT22;1778;47.966;7.854;2023-07-13T05:59:35;18.90;99.90
3528;DHT22;1778;47.966;7.854;2023-07-13T06:00:36;18.90;99.90
3528;DHT22;1778;47.966;7.854;2023-07-13T06:01:38;19.00;99.90
3528;DHT22;1778;47.966;7.854;2023-07-13T06:02:40;19.00;99.90
3528;DHT22;1778;47.966;7.854;2023-07-13T06:03:42;19.10;99.90
3528;DHT22;1778;47.966;7.854;2023-07-13T06:04:44;19.10;99.90
3528;DHT22;1778;47.966;7.854;2023-07-13T06:05:45;19.10;99.90
3528;DHT22;1778;47.966;7.854;2023-07-13T06:06:47;19.10;99.90
3528;DHT22;1778;47.966;7.854;2023-07-13T06:07:49;19.20;99.90
3528;DHT22;1778;47.966;7.854;2023-07-13T06:08:50;19.20;99.90
3528;DHT22;1778;47.966;7.854;2023-07-13T06:09:52;19.20;99.90
3528;DHT22;1778;47.966;7.854;2023-07-13T06:10:54;19.20;99.90
3528;DHT22;1778;47.966;7.854;2023-07-13T06:11:56;19.20;99.90
3528;DHT22;1778;47.966;7.854;2023-07-13T06:12:57;19.30;99.90
3528;DHT22;1778;47.966;7.854;2023-07-13T06:13:59;19.30;99.90
3528;DHT22;1778;47.966;7.854;2023-07-13T06:15:00;19.30;99.90
3528;DHT22;1778;47.966;7.854;2023-07-13T06:16:03;19.30;99.90
3528;DHT22;1778;47.966;7.854;2023-07-13T06:17:08;19.40;99.90
3528;DHT22;1778;47.966;7.854;2023-07-13T06:18:10;19.40;99.90
3528;DHT22;1778;47.966;7.854;2023-07-13T06:19:11;19.50;99.90
3528;DHT22;1778;47.966;7.854;2023-07-13T06:20:13;19.50;99.90
3528;DHT22;1778;47.966;7.854;2023-07-13T06:21:18;19.60;99.90
3528;DHT22;1778;47.966;7.854;2023-07-13T06:22:20;19.60;99.90
3528;DHT22;1778;47.966;7.854;2023-07-13T06:23:22;19.70;99.90
3528;DHT22;1778;47.966;7.854;2023-07-13T06:24:25;19.80;99.90
3528;DHT22;1778;47.966;7.854;2023-07-13T06:25:26;19.80;99.90
3528;DHT22;1778;47.966;7.854;2023-07-13T06:26:29;19.80;99.90
3528;DHT22;1778;47.966;7.854;2023-07-13T06:27:30;19.90;99.90
3528;DHT22;1778;47.966;7.854;2023-07-13T06:28:34;20.00;99.90
3528;DHT22;1778;47.966;7.854;2023-07-13T06:29:35;20.00;99.90
3528;DHT22;1778;47.966;7.854;2023-07-13T06:30:38;20.00;99.90
3528;DHT22;1778;47.966;7.854;2023-07-13T06:31:40;20.10;99.90
3528;DHT22;1778;47.966;7.854;2023-07-13T06:32:42;20.10;99.90
3528;DHT22;1778;47.966;7.854;2023-07-13T06:33:44;20.10;99.90
3528;DHT22;1778;47.966;7.854;2023-07-13T06:34:46;20.10;99.90
3528;DHT22;1778;47.966;7.854;2023-07-13T06:35:47;20.00;99.90
3528;DHT22;1778;47.966;7.854;2023-07-13T06:36:49;20.10;99.90
3528;DHT22;1778;47.966;7.854;2023-07-13T06:37:51;20.00;99.90
3528;DHT22;1778;47.966;7.854;2023-07-13T06:38:52;20.00;99.90
3528;DHT22;1778;47.966;7.854;2023-07-13T06:39:54;19.90;99.90
3528;DHT22;1778;47.966;7.854;2023-07-13T06:40:56;19.90;99.90
3528;DHT22;1778;47.966;7.854;2023-07-13T06:41:58;19.90;99.90
3528;DHT22;1778;47.966;7.854;2023-07-13T06:43:00;19.90;99.90
3528;DHT22;1778;47.966;7.854;2023-07-13T06:44:02;20.00;99.90
3528;DHT22;1778;47.966;7.854;2023-07-13T06:45:06;20.00;99.90
3528;DHT22;1778;47.966;7.854;2023-07-13T06:46:07;20.10;99.90
3528;DHT22;1778;47.966;7.854;2023-07-13T06:47:09;20.00;99.90
3528;DHT22;1778;47.966;7.854;2023-07-13T06:48:11;19.90;99.90
3528;DHT22;1778;47.966;7.854;2023-07-13T06:49:13;19.90;99.90
3528;DHT22;1778;47.966;7.854;2023-07-13T06:50:15;20.00;99.90
3528;DHT22;1778;47.966;7.854;2023-07-13T06:51:16;20.00;99.90